sensor_id;sensor_type;location;lat;lon;timestamp;pressure;altitude;pressure_sealevel;temperature;humidity
69351;BME280;57106;51.446;-2.606;2023-03-26T00:01:40;100089.24;;;10.68;74.89
69351;BME280;57106;51.446;-2.606;2023-03-26T00:06:33;100080.74;;;10.83;74.30
69351;BME280;57106;51.446;-2.606;2023-03-26T00:08:57;100080.23;;;10.83;73.99
69351;BME280;57106;51.446;-2.606;2023-03-26T00:11:24;100072.95;;;10.62;73.99
69351;BME280;57106;51.446;-2.606;2023-03-26T00:13:48;100070.29;;;10.43;73.37
69351;BME280;57106;51.446;-2.606;2023-03-26T00:16:16;100067.16;;;10.16;73.68
69351;BME280;57106;51.446;-2.606;2023-03-26T00:18:39;100067.82;;;10.22;73.84
69351;BME280;57106;51.446;-2.606;2023-03-26T00:21:05;100060.36;;;10.10;74.29
69351;BME280;57106;51.446;-2.606;2023-03-26T00:23:31;100057.78;;;10.01;75.49
69351;BME280;57106;51.446;-2.606;2023-03-26T00:25:56;100052.44;;;9.79;76.24
69351;BME280;57106;51.446;-2.606;2023-03-26T00:28:22;100051.65;;;9.92;76.07
69351;BME280;57106;51.446;-2.606;2023-03-26T00:30:47;100050.00;;;9.72;76.98
69351;BME280;57106;51.446;-2.606;2023-03-26T00:33:12;100043.20;;;9.59;77.80
69351;BME280;57106;51.446;-2.606;2023-03-26T00:35:38;100042.84;;;9.69;77.95
69351;BME280;57106;51.446;-2.606;2023-03-26T00:38:03;100039.94;;;9.62;78.01
69351;BME280;57106;51.446;-2.606;2023-03-26T00:40:30;100041.44;;;9.71;78.08
69351;BME280;57106;51.446;-2.606;2023-03-26T00:42:55;100036.23;;;9.76;78.02
69351;BME280;57106;51.446;-2.606;2023-03-26T00:45:20;100031.00;;;9.48;79.09
69351;BME280;57106;51.446;-2.606;2023-03-26T00:47:46;100033.28;;;9.52;78.85
69351;BME280;57106;51.446;-2.606;2023-03-26T00:50:11;100029.98;;;9.57;78.70
69351;BME280;57106;51.446;-2.606;2023-03-26T00:52:37;100026.74;;;9.83;78.72
69351;BME280;57106;51.446;-2.606;2023-03-26T00:55:03;100022.48;;;10.07;77.69
69351;BME280;57106;51.446;-2.606;2023-03-26T00:57:29;100020.73;;;10.10;77.50
69351;BME280;57106;51.446;-2.606;2023-03-26T00:59:54;100023.07;;;10.23;77.19
69351;BME280;57106;51.446;-2.606;2023-03-26T01:02:19;100020.04;;;10.24;76.67
69351;BME280;57106;51.446;-2.606;2023-03-26T01:04:46;100016.07;;;10.28;75.06
69351;BME280;57106;51.446;-2.606;2023-03-26T01:07:12;100014.99;;;9.88;74.60
69351;BME280;57106;51.446;-2.606;2023-03-26T01:09:39;100012.27;;;9.90;74.61
69351;BME280;57106;51.446;-2.606;2023-03-26T01:12:06;100006.25;;;10.01;74.03
69351;BME280;57106;51.446;-2.606;2023-03-26T01:14:28;100005.85;;;10.10;74.47
69351;BME280;57106;51.446;-2.606;2023-03-26T01:16:54;99999.81;;;9.99;75.15
69351;BME280;57106;51.446;-2.606;2023-03-26T01:19:24;99995.16;;;9.97;74.61
69351;BME280;57106;51.446;-2.606;2023-03-26T01:21:44;99991.39;;;9.96;74.72
69351;BME280;57106;51.446;-2.606;2023-03-26T01:24:09;99989.46;;;9.84;74.48
69351;BME280;57106;51.446;-2.606;2023-03-26T01:26:46;99985.92;;;9.95;74.85
69351;BME280;57106;51.446;-2.606;2023-03-26T01:29:02;99985.63;;;10.11;73.95
69351;BME280;57106;51.446;-2.606;2023-03-26T01:31:29;99981.67;;;10.01;74.79
69351;BME280;57106;51.446;-2.606;2023-03-26T01:33:57;99974.33;;;9.88;74.85
69351;BME280;57106;51.446;-2.606;2023-03-26T01:36:23;99975.05;;;10.06;74.22
69351;BME280;57106;51.446;-2.606;2023-03-26T01:38:48;99970.69;;;9.85;74.49
69351;BME280;57106;51.446;-2.606;2023-03-26T01:41:12;99969.66;;;9.80;74.93
69351;BME280;57106;51.446;-2.606;2023-03-26T01:43:40;99968.28;;;9.95;75.23
69351;BME280;57106;51.446;-2.606;2023-03-26T01:46:02;99966.63;;;10.04;75.38
69351;BME280;57106;51.446;-2.606;2023-03-26T01:48:29;99968.65;;;9.89;75.24
69351;BME280;57106;51.446;-2.606;2023-03-26T01:50:50;99970.02;;;9.98;75.82
69351;BME280;57106;51.446;-2.606;2023-03-26T01:53:16;99967.75;;;10.11;74.79
69351;BME280;57106;51.446;-2.606;2023-03-26T01:55:49;99963.79;;;9.97;73.69
69351;BME280;57106;51.446;-2.606;2023-03-26T01:58:11;99959.38;;;9.97;73.95
69351;BME280;57106;51.446;-2.606;2023-03-26T02:00:36;99959.91;;;9.94;73.30
69351;BME280;57106;51.446;-2.606;2023-03-26T02:03:08;99960.84;;;9.93;72.32
69351;BME280;57106;51.446;-2.606;2023-03-26T02:05:28;99957.58;;;9.89;72.40
69351;BME280;57106;51.446;-2.606;2023-03-26T02:07:53;99954.02;;;9.87;72.83
69351;BME280;57106;51.446;-2.606;2023-03-26T02:10:20;99951.10;;;9.63;72.17
69351;BME280;57106;51.446;-2.606;2023-03-26T02:12:41;99949.88;;;9.50;73.28
69351;BME280;57106;51.446;-2.606;2023-03-26T02:15:07;99949.70;;;9.51;74.59
69351;BME280;57106;51.446;-2.606;2023-03-26T02:17:32;99948.06;;;9.66;73.56
69351;BME280;57106;51.446;-2.606;2023-03-26T02:19:57;99947.25;;;9.72;72.47
69351;BME280;57106;51.446;-2.606;2023-03-26T02:22:23;99943.59;;;9.66;73.65
69351;BME280;57106;51.446;-2.606;2023-03-26T02:24:48;99941.62;;;9.71;73.00
69351;BME280;57106;51.446;-2.606;2023-03-26T02:27:14;99941.77;;;9.76;72.89
69351;BME280;57106;51.446;-2.606;2023-03-26T02:29:40;99938.44;;;9.55;73.32
69351;BME280;57106;51.446;-2.606;2023-03-26T02:32:06;99933.66;;;9.59;72.88
69351;BME280;57106;51.446;-2.606;2023-03-26T02:34:32;99933.58;;;9.64;72.41
69351;BME280;57106;51.446;-2.606;2023-03-26T02:36:56;99930.22;;;9.54;72.89
69351;BME280;57106;51.446;-2.606;2023-03-26T02:39:22;99929.56;;;9.58;72.82
69351;BME280;57106;51.446;-2.606;2023-03-26T02:41:47;99927.96;;;9.68;72.70
69351;BME280;57106;51.446;-2.606;2023-03-26T02:44:13;99920.63;;;9.53;72.35
69351;BME280;57106;51.446;-2.606;2023-03-26T02:46:39;99919.66;;;9.39;73.49
69351;BME280;57106;51.446;-2.606;2023-03-26T02:49:04;99919.44;;;9.59;72.80
69351;BME280;57106;51.446;-2.606;2023-03-26T02:51:30;99919.25;;;9.61;72.65
69351;BME280;57106;51.446;-2.606;2023-03-26T02:53:55;99916.69;;;9.47;73.14
69351;BME280;57106;51.446;-2.606;2023-03-26T02:56:21;99920.68;;;9.51;72.88
69351;BME280;57106;51.446;-2.606;2023-03-26T02:58:46;99918.51;;;9.25;73.08
69351;BME280;57106;51.446;-2.606;2023-03-26T03:01:12;99917.74;;;9.48;73.33
69351;BME280;57106;51.446;-2.606;2023-03-26T03:03:38;99915.71;;;9.40;73.93
69351;BME280;57106;51.446;-2.606;2023-03-26T03:06:04;99913.39;;;9.45;73.72
69351;BME280;57106;51.446;-2.606;2023-03-26T03:08:29;99909.86;;;9.42;74.75
69351;BME280;57106;51.446;-2.606;2023-03-26T03:10:56;99908.19;;;9.31;74.34
69351;BME280;57106;51.446;-2.606;2023-03-26T03:13:20;99906.82;;;9.10;74.28
69351;BME280;57106;51.446;-2.606;2023-03-26T03:15:45;99906.45;;;9.07;74.38
69351;BME280;57106;51.446;-2.606;2023-03-26T03:18:11;99904.24;;;8.99;74.88
69351;BME280;57106;51.446;-2.606;2023-03-26T03:20:37;99908.41;;;9.16;74.43
69351;BME280;57106;51.446;-2.606;2023-03-26T03:23:02;99906.30;;;9.12;74.93
69351;BME280;57106;51.446;-2.606;2023-03-26T03:25:29;99903.73;;;9.19;75.25
69351;BME280;57106;51.446;-2.606;2023-03-26T03:27:53;99905.90;;;9.30;75.01
69351;BME280;57106;51.446;-2.606;2023-03-26T03:30:19;99902.83;;;9.18;74.78
69351;BME280;57106;51.446;-2.606;2023-03-26T03:32:45;99903.59;;;9.08;75.09
69351;BME280;57106;51.446;-2.606;2023-03-26T03:35:10;99900.94;;;9.14;75.94
69351;BME280;57106;51.446;-2.606;2023-03-26T03:37:36;99898.03;;;9.03;75.70
69351;BME280;57106;51.446;-2.606;2023-03-26T03:40:02;99895.49;;;9.22;75.41
69351;BME280;57106;51.446;-2.606;2023-03-26T03:42:27;99898.02;;;9.29;75.57
69351;BME280;57106;51.446;-2.606;2023-03-26T03:44:52;99898.39;;;9.41;75.22
69351;BME280;57106;51.446;-2.606;2023-03-26T03:47:18;99897.11;;;9.39;75.27
69351;BME280;57106;51.446;-2.606;2023-03-26T03:49:44;99898.01;;;9.38;75.62
69351;BME280;57106;51.446;-2.606;2023-03-26T03:52:10;99899.63;;;9.37;75.34
69351;BME280;57106;51.446;-2.606;2023-03-26T03:54:35;99903.00;;;9.27;76.61
69351;BME280;57106;51.446;-2.606;2023-03-26T03:57:00;99902.12;;;9.24;75.95
69351;BME280;57106;51.446;-2.606;2023-03-26T03:59:26;99902.48;;;9.43;75.73
69351;BME280;57106;51.446;-2.606;2023-03-26T04:01:52;99897.58;;;9.39;75.05
69351;BME280;57106;51.446;-2.606;2023-03-26T04:04:17;99900.54;;;9.30;75.16
69351;BME280;57106;51.446;-2.606;2023-03-26T04:06:43;99900.81;;;9.34;75.00
69351;BME280;57106;51.446;-2.606;2023-03-26T04:09:08;99899.68;;;9.15;75.13
69351;BME280;57106;51.446;-2.606;2023-03-26T04:11:35;99900.44;;;9.08;75.37
69351;BME280;57106;51.446;-2.606;2023-03-26T04:14:00;99899.87;;;8.95;76.28
69351;BME280;57106;51.446;-2.606;2023-03-26T04:16:25;99902.59;;;8.95;76.16
69351;BME280;57106;51.446;-2.606;2023-03-26T04:18:51;99902.99;;;8.94;76.29
69351;BME280;57106;51.446;-2.606;2023-03-26T04:21:16;99901.15;;;9.00;76.28
69351;BME280;57106;51.446;-2.606;2023-03-26T04:23:42;99902.94;;;8.93;75.82
69351;BME280;57106;51.446;-2.606;2023-03-26T04:26:13;99899.68;;;8.91;76.24
69351;BME280;57106;51.446;-2.606;2023-03-26T04:28:39;99902.41;;;8.76;76.18
69351;BME280;57106;51.446;-2.606;2023-03-26T04:31:00;99904.49;;;8.43;76.56
69351;BME280;57106;51.446;-2.606;2023-03-26T04:33:25;99899.26;;;8.64;76.29
69351;BME280;57106;51.446;-2.606;2023-03-26T04:35:50;99902.26;;;8.70;75.38
69351;BME280;57106;51.446;-2.606;2023-03-26T04:38:16;99905.59;;;8.64;75.64
69351;BME280;57106;51.446;-2.606;2023-03-26T04:40:41;99902.31;;;8.75;75.10
69351;BME280;57106;51.446;-2.606;2023-03-26T04:43:10;99904.37;;;8.84;74.83
69351;BME280;57106;51.446;-2.606;2023-03-26T04:45:33;99907.84;;;8.88;75.08
69351;BME280;57106;51.446;-2.606;2023-03-26T04:47:58;99906.55;;;8.67;74.39
69351;BME280;57106;51.446;-2.606;2023-03-26T04:50:24;99912.48;;;8.86;74.29
69351;BME280;57106;51.446;-2.606;2023-03-26T04:52:50;99912.75;;;8.94;74.70
69351;BME280;57106;51.446;-2.606;2023-03-26T04:55:21;99913.97;;;9.05;74.74
69351;BME280;57106;51.446;-2.606;2023-03-26T04:57:42;99914.38;;;8.98;74.98
69351;BME280;57106;51.446;-2.606;2023-03-26T05:00:08;99918.03;;;9.20;74.84
69351;BME280;57106;51.446;-2.606;2023-03-26T05:02:32;99917.99;;;9.29;74.20
69351;BME280;57106;51.446;-2.606;2023-03-26T05:04:57;99921.82;;;9.22;74.60
69351;BME280;57106;51.446;-2.606;2023-03-26T05:07:23;99923.59;;;9.40;73.77
69351;BME280;57106;51.446;-2.606;2023-03-26T05:09:49;99924.59;;;9.32;74.09
69351;BME280;57106;51.446;-2.606;2023-03-26T05:12:15;99926.61;;;9.19;74.70
69351;BME280;57106;51.446;-2.606;2023-03-26T05:14:40;99928.53;;;9.18;74.53
69351;BME280;57106;51.446;-2.606;2023-03-26T05:17:05;99929.22;;;9.24;74.38
69351;BME280;57106;51.446;-2.606;2023-03-26T05:19:31;99928.15;;;9.39;74.09
69351;BME280;57106;51.446;-2.606;2023-03-26T05:21:56;99934.11;;;9.36;73.83
69351;BME280;57106;51.446;-2.606;2023-03-26T05:24:22;99934.64;;;9.25;74.61
69351;BME280;57106;51.446;-2.606;2023-03-26T05:26:48;99938.43;;;9.14;74.25
69351;BME280;57106;51.446;-2.606;2023-03-26T05:29:16;99942.86;;;9.27;74.59
69351;BME280;57106;51.446;-2.606;2023-03-26T05:31:44;99944.00;;;9.19;75.00
69351;BME280;57106;51.446;-2.606;2023-03-26T05:34:04;99946.71;;;9.13;74.07
69351;BME280;57106;51.446;-2.606;2023-03-26T05:36:31;99949.47;;;9.31;73.55
69351;BME280;57106;51.446;-2.606;2023-03-26T05:38:56;99951.69;;;9.18;73.64
69351;BME280;57106;51.446;-2.606;2023-03-26T05:41:21;99954.15;;;8.99;73.92
69351;BME280;57106;51.446;-2.606;2023-03-26T05:43:48;99961.24;;;8.83;75.91
69351;BME280;57106;51.446;-2.606;2023-03-26T05:46:13;99964.95;;;8.87;75.89
69351;BME280;57106;51.446;-2.606;2023-03-26T05:51:04;99966.58;;;9.17;74.02
69351;BME280;57106;51.446;-2.606;2023-03-26T05:53:29;99965.62;;;9.16;74.64
69351;BME280;57106;51.446;-2.606;2023-03-26T05:55:55;99966.28;;;9.21;74.14
69351;BME280;57106;51.446;-2.606;2023-03-26T05:58:20;99969.26;;;9.08;75.01
69351;BME280;57106;51.446;-2.606;2023-03-26T06:00:46;99973.24;;;9.00;75.53
69351;BME280;57106;51.446;-2.606;2023-03-26T06:03:11;99972.95;;;8.94;76.05
69351;BME280;57106;51.446;-2.606;2023-03-26T06:05:38;99976.38;;;9.00;75.04
69351;BME280;57106;51.446;-2.606;2023-03-26T06:08:03;99972.97;;;9.17;74.24
69351;BME280;57106;51.446;-2.606;2023-03-26T06:10:28;99979.61;;;9.12;74.02
69351;BME280;57106;51.446;-2.606;2023-03-26T06:12:54;99982.08;;;9.18;73.99
69351;BME280;57106;51.446;-2.606;2023-03-26T06:15:19;99987.37;;;9.06;73.71
69351;BME280;57106;51.446;-2.606;2023-03-26T06:17:45;99990.25;;;9.19;72.32
69351;BME280;57106;51.446;-2.606;2023-03-26T06:20:11;99997.52;;;9.02;73.54
69351;BME280;57106;51.446;-2.606;2023-03-26T06:22:37;100001.25;;;9.14;72.33
69351;BME280;57106;51.446;-2.606;2023-03-26T06:25:02;100002.57;;;9.01;72.91
69351;BME280;57106;51.446;-2.606;2023-03-26T06:27:27;100006.95;;;9.05;71.90
69351;BME280;57106;51.446;-2.606;2023-03-26T06:29:53;100009.46;;;8.76;72.58
69351;BME280;57106;51.446;-2.606;2023-03-26T06:32:18;100015.01;;;8.79;73.01
69351;BME280;57106;51.446;-2.606;2023-03-26T06:34:44;100017.03;;;8.82;73.84
69351;BME280;57106;51.446;-2.606;2023-03-26T06:37:10;100020.29;;;8.93;73.47
69351;BME280;57106;51.446;-2.606;2023-03-26T06:39:36;100024.68;;;8.82;73.76
69351;BME280;57106;51.446;-2.606;2023-03-26T06:42:01;100027.89;;;8.41;75.17
69351;BME280;57106;51.446;-2.606;2023-03-26T06:44:27;100029.05;;;8.78;75.25
69351;BME280;57106;51.446;-2.606;2023-03-26T06:46:52;100035.54;;;8.80;74.76
69351;BME280;57106;51.446;-2.606;2023-03-26T06:49:18;100039.92;;;9.00;73.96
69351;BME280;57106;51.446;-2.606;2023-03-26T06:51:44;100045.12;;;8.68;75.43
69351;BME280;57106;51.446;-2.606;2023-03-26T06:54:09;100052.77;;;8.83;75.46
69351;BME280;57106;51.446;-2.606;2023-03-26T06:56:35;100060.90;;;8.74;75.60
69351;BME280;57106;51.446;-2.606;2023-03-26T06:59:00;100065.22;;;8.57;76.32
69351;BME280;57106;51.446;-2.606;2023-03-26T07:01:26;100069.08;;;8.36;76.43
69351;BME280;57106;51.446;-2.606;2023-03-26T07:03:52;100073.72;;;8.34;76.99
69351;BME280;57106;51.446;-2.606;2023-03-26T07:06:17;100079.43;;;8.41;77.08
69351;BME280;57106;51.446;-2.606;2023-03-26T07:08:43;100077.05;;;8.34;75.88
69351;BME280;57106;51.446;-2.606;2023-03-26T07:11:08;100080.29;;;8.31;76.15
69351;BME280;57106;51.446;-2.606;2023-03-26T07:13:34;100087.57;;;8.68;75.40
69351;BME280;57106;51.446;-2.606;2023-03-26T07:16:00;100093.00;;;8.71;75.03
69351;BME280;57106;51.446;-2.606;2023-03-26T07:18:25;100096.11;;;8.56;75.27
69351;BME280;57106;51.446;-2.606;2023-03-26T07:20:51;100103.61;;;8.63;75.52
69351;BME280;57106;51.446;-2.606;2023-03-26T07:23:17;100105.23;;;8.28;74.90
69351;BME280;57106;51.446;-2.606;2023-03-26T07:25:43;100114.06;;;8.34;75.03
69351;BME280;57106;51.446;-2.606;2023-03-26T07:28:16;100115.26;;;8.60;74.92
69351;BME280;57106;51.446;-2.606;2023-03-26T07:30:44;100122.99;;;8.65;74.71
69351;BME280;57106;51.446;-2.606;2023-03-26T07:33:02;100127.51;;;8.74;74.90
69351;BME280;57106;51.446;-2.606;2023-03-26T07:35:27;100130.91;;;8.86;74.50
69351;BME280;57106;51.446;-2.606;2023-03-26T07:38:00;100133.28;;;8.50;75.28
69351;BME280;57106;51.446;-2.606;2023-03-26T07:40:25;100137.18;;;8.52;76.02
69351;BME280;57106;51.446;-2.606;2023-03-26T07:42:52;100142.45;;;8.59;75.88
69351;BME280;57106;51.446;-2.606;2023-03-26T07:45:16;100147.64;;;8.53;75.80
69351;BME280;57106;51.446;-2.606;2023-03-26T07:47:34;100148.32;;;8.25;76.83
69351;BME280;57106;51.446;-2.606;2023-03-26T07:49:58;100156.69;;;8.15;77.30
69351;BME280;57106;51.446;-2.606;2023-03-26T07:52:24;100159.93;;;8.26;76.92
69351;BME280;57106;51.446;-2.606;2023-03-26T07:54:49;100166.50;;;8.61;76.62
69351;BME280;57106;51.446;-2.606;2023-03-26T07:57:20;100166.37;;;8.68;75.73
69351;BME280;57106;51.446;-2.606;2023-03-26T07:59:46;100171.99;;;8.57;75.89
69351;BME280;57106;51.446;-2.606;2023-03-26T08:02:17;100175.22;;;8.68;75.10
69351;BME280;57106;51.446;-2.606;2023-03-26T08:04:41;100179.11;;;8.83;74.81
69351;BME280;57106;51.446;-2.606;2023-03-26T08:07:02;100179.68;;;9.02;74.66
69351;BME280;57106;51.446;-2.606;2023-03-26T08:09:29;100189.06;;;9.23;73.58
69351;BME280;57106;51.446;-2.606;2023-03-26T08:11:54;100187.82;;;9.35;73.20
69351;BME280;57106;51.446;-2.606;2023-03-26T08:14:28;100194.02;;;8.99;73.60
69351;BME280;57106;51.446;-2.606;2023-03-26T08:16:46;100198.49;;;9.21;73.19
69351;BME280;57106;51.446;-2.606;2023-03-26T08:19:13;100198.84;;;9.05;73.63
69351;BME280;57106;51.446;-2.606;2023-03-26T08:21:34;100204.41;;;8.75;74.28
69351;BME280;57106;51.446;-2.606;2023-03-26T08:24:00;100206.96;;;8.88;74.38
69351;BME280;57106;51.446;-2.606;2023-03-26T08:26:28;100213.04;;;8.95;74.25
69351;BME280;57106;51.446;-2.606;2023-03-26T08:28:57;100217.54;;;9.09;73.54
69351;BME280;57106;51.446;-2.606;2023-03-26T08:31:14;100222.93;;;9.02;74.12
69351;BME280;57106;51.446;-2.606;2023-03-26T08:33:39;100231.05;;;9.45;72.46
69351;BME280;57106;51.446;-2.606;2023-03-26T08:36:04;100234.93;;;9.25;72.75
69351;BME280;57106;51.446;-2.606;2023-03-26T08:38:30;100240.98;;;9.14;73.22
69351;BME280;57106;51.446;-2.606;2023-03-26T08:45:57;100255.16;;;8.94;73.15
69351;BME280;57106;51.446;-2.606;2023-03-26T08:50:56;100262.08;;;9.02;72.00
69351;BME280;57106;51.446;-2.606;2023-03-26T08:53:17;100268.40;;;9.34;72.10
69351;BME280;57106;51.446;-2.606;2023-03-26T08:55:40;100273.54;;;9.27;72.74
69351;BME280;57106;51.446;-2.606;2023-03-26T09:00:37;100290.52;;;9.33;71.74
69351;BME280;57106;51.446;-2.606;2023-03-26T09:07:53;100302.62;;;9.16;74.07
69351;BME280;57106;51.446;-2.606;2023-03-26T09:10:17;100308.59;;;9.41;72.66
69351;BME280;57106;51.446;-2.606;2023-03-26T09:19:58;100329.82;;;9.71;71.85
69351;BME280;57106;51.446;-2.606;2023-03-26T09:22:27;100332.56;;;9.84;71.55
69351;BME280;57106;51.446;-2.606;2023-03-26T09:24:46;100335.81;;;9.92;70.91
69351;BME280;57106;51.446;-2.606;2023-03-26T09:32:08;100351.77;;;9.41;70.47
69351;BME280;57106;51.446;-2.606;2023-03-26T09:34:27;100359.14;;;9.52;70.32
69351;BME280;57106;51.446;-2.606;2023-03-26T09:36:53;100363.64;;;9.54;70.02
69351;BME280;57106;51.446;-2.606;2023-03-26T09:39:16;100364.88;;;9.43;70.76
69351;BME280;57106;51.446;-2.606;2023-03-26T09:41:41;100371.53;;;9.78;70.23
69351;BME280;57106;51.446;-2.606;2023-03-26T09:46:31;100384.95;;;10.23;69.35
69351;BME280;57106;51.446;-2.606;2023-03-26T09:49:04;100390.64;;;9.98;68.96
69351;BME280;57106;51.446;-2.606;2023-03-26T09:51:29;100394.77;;;9.70;69.43
69351;BME280;57106;51.446;-2.606;2023-03-26T09:53:51;100403.42;;;9.72;70.98
69351;BME280;57106;51.446;-2.606;2023-03-26T09:56:15;100411.01;;;9.96;70.62
69351;BME280;57106;51.446;-2.606;2023-03-26T09:58:55;100408.40;;;9.90;70.07
69351;BME280;57106;51.446;-2.606;2023-03-26T10:01:05;100415.44;;;9.94;70.62
69351;BME280;57106;51.446;-2.606;2023-03-26T10:03:31;100423.07;;;10.02;70.68
69351;BME280;57106;51.446;-2.606;2023-03-26T10:05:56;100427.59;;;10.18;69.90
69351;BME280;57106;51.446;-2.606;2023-03-26T10:10:47;100443.47;;;10.01;70.92
69351;BME280;57106;51.446;-2.606;2023-03-26T10:13:14;100454.47;;;10.21;70.90
69351;BME280;57106;51.446;-2.606;2023-03-26T10:15:40;100461.46;;;9.89;72.64
69351;BME280;57106;51.446;-2.606;2023-03-26T10:18:09;100470.97;;;9.67;73.41
69351;BME280;57106;51.446;-2.606;2023-03-26T10:20:36;100479.56;;;9.49;74.41
69351;BME280;57106;51.446;-2.606;2023-03-26T10:22:59;100491.02;;;9.72;73.87
69351;BME280;57106;51.446;-2.606;2023-03-26T10:27:47;100492.88;;;9.43;74.57
69351;BME280;57106;51.446;-2.606;2023-03-26T10:30:24;100501.53;;;9.61;74.44
69351;BME280;57106;51.446;-2.606;2023-03-26T10:32:37;100506.21;;;9.94;73.75
69351;BME280;57106;51.446;-2.606;2023-03-26T10:35:06;100513.69;;;9.93;74.01
69351;BME280;57106;51.446;-2.606;2023-03-26T10:37:33;100516.48;;;10.02;73.64
69351;BME280;57106;51.446;-2.606;2023-03-26T10:39:59;100529.43;;;10.19;72.88
69351;BME280;57106;51.446;-2.606;2023-03-26T10:42:31;100530.67;;;10.22;72.03
69351;BME280;57106;51.446;-2.606;2023-03-26T10:44:52;100531.48;;;10.09;72.41
69351;BME280;57106;51.446;-2.606;2023-03-26T10:47:19;100537.69;;;10.05;73.30
69351;BME280;57106;51.446;-2.606;2023-03-26T10:51:57;100548.23;;;10.31;72.66
69351;BME280;57106;51.446;-2.606;2023-03-26T10:54:31;100551.53;;;10.07;73.35
69351;BME280;57106;51.446;-2.606;2023-03-26T10:56:48;100557.77;;;10.44;72.23
69351;BME280;57106;51.446;-2.606;2023-03-26T10:59:14;100569.62;;;10.37;72.77
69351;BME280;57106;51.446;-2.606;2023-03-26T11:01:42;100570.13;;;10.86;70.98
69351;BME280;57106;51.446;-2.606;2023-03-26T11:06:36;100586.34;;;10.36;71.63
69351;BME280;57106;51.446;-2.606;2023-03-26T11:09:02;100594.17;;;10.50;71.94
69351;BME280;57106;51.446;-2.606;2023-03-26T11:11:26;100601.01;;;10.50;71.06
69351;BME280;57106;51.446;-2.606;2023-03-26T11:13:54;100603.10;;;10.62;70.71
69351;BME280;57106;51.446;-2.606;2023-03-26T11:16:17;100605.25;;;10.59;70.95
69351;BME280;57106;51.446;-2.606;2023-03-26T11:18:41;100602.57;;;10.85;70.42
69351;BME280;57106;51.446;-2.606;2023-03-26T11:21:07;100609.99;;;10.74;70.28
69351;BME280;57106;51.446;-2.606;2023-03-26T11:23:34;100614.24;;;10.60;69.93
69351;BME280;57106;51.446;-2.606;2023-03-26T11:26:06;100617.30;;;10.52;70.70
69351;BME280;57106;51.446;-2.606;2023-03-26T11:28:31;100622.77;;;10.27;71.38
69351;BME280;57106;51.446;-2.606;2023-03-26T11:30:47;100641.36;;;9.96;72.72
69351;BME280;57106;51.446;-2.606;2023-03-26T11:33:14;100639.67;;;9.81;73.71
69351;BME280;57106;51.446;-2.606;2023-03-26T11:35:38;100649.20;;;9.82;74.23
69351;BME280;57106;51.446;-2.606;2023-03-26T11:38:04;100648.14;;;10.11;74.05
69351;BME280;57106;51.446;-2.606;2023-03-26T11:40:31;100654.52;;;10.39;73.37
69351;BME280;57106;51.446;-2.606;2023-03-26T11:42:59;100667.81;;;10.25;74.45
69351;BME280;57106;51.446;-2.606;2023-03-26T11:45:22;100674.64;;;9.97;75.27
69351;BME280;57106;51.446;-2.606;2023-03-26T11:47:47;100684.76;;;9.85;75.99
69351;BME280;57106;51.446;-2.606;2023-03-26T11:50:14;100697.42;;;9.83;75.76
69351;BME280;57106;51.446;-2.606;2023-03-26T11:52:40;100702.24;;;9.85;75.82
69351;BME280;57106;51.446;-2.606;2023-03-26T11:55:01;100707.88;;;9.81;75.53
69351;BME280;57106;51.446;-2.606;2023-03-26T11:57:28;100714.48;;;9.77;75.51
69351;BME280;57106;51.446;-2.606;2023-03-26T11:59:57;100720.18;;;9.70;75.87
69351;BME280;57106;51.446;-2.606;2023-03-26T12:02:24;100729.70;;;9.67;75.87
69351;BME280;57106;51.446;-2.606;2023-03-26T12:04:45;100731.23;;;9.78;75.38
69351;BME280;57106;51.446;-2.606;2023-03-26T12:09:34;100745.55;;;9.81;74.54
69351;BME280;57106;51.446;-2.606;2023-03-26T12:12:02;100755.49;;;10.09;74.32
69351;BME280;57106;51.446;-2.606;2023-03-26T12:14:28;100782.25;;;10.09;73.59
69351;BME280;57106;51.446;-2.606;2023-03-26T12:16:59;100777.17;;;9.88;74.27
69351;BME280;57106;51.446;-2.606;2023-03-26T12:19:18;100780.11;;;9.82;74.52
69351;BME280;57106;51.446;-2.606;2023-03-26T12:21:45;100795.09;;;10.02;73.57
69351;BME280;57106;51.446;-2.606;2023-03-26T12:24:23;100801.92;;;9.96;73.00
69351;BME280;57106;51.446;-2.606;2023-03-26T12:26:37;100808.71;;;9.94;73.35
69351;BME280;57106;51.446;-2.606;2023-03-26T12:29:09;100810.54;;;10.04;73.08
69351;BME280;57106;51.446;-2.606;2023-03-26T12:31:25;100810.31;;;9.88;73.01
69351;BME280;57106;51.446;-2.606;2023-03-26T12:34:05;100829.15;;;9.87;72.59
69351;BME280;57106;51.446;-2.606;2023-03-26T12:36:22;100849.91;;;9.86;72.48
69351;BME280;57106;51.446;-2.606;2023-03-26T12:38:41;100842.07;;;9.65;72.69
69351;BME280;57106;51.446;-2.606;2023-03-26T12:41:08;100851.81;;;9.62;72.36
69351;BME280;57106;51.446;-2.606;2023-03-26T12:43:38;100847.67;;;9.59;72.24
69351;BME280;57106;51.446;-2.606;2023-03-26T12:45:58;100862.89;;;9.64;71.96
69351;BME280;57106;51.446;-2.606;2023-03-26T12:48:24;100867.61;;;9.64;72.41
69351;BME280;57106;51.446;-2.606;2023-03-26T12:50:59;100871.60;;;9.96;72.01
69351;BME280;57106;51.446;-2.606;2023-03-26T12:53:32;100875.91;;;10.09;71.00
69351;BME280;57106;51.446;-2.606;2023-03-26T12:55:47;100881.37;;;9.85;71.59
69351;BME280;57106;51.446;-2.606;2023-03-26T12:58:17;100899.11;;;9.74;71.95
69351;BME280;57106;51.446;-2.606;2023-03-26T13:00:41;100891.90;;;9.85;71.21
69351;BME280;57106;51.446;-2.606;2023-03-26T13:03:11;100902.63;;;9.89;71.15
69351;BME280;57106;51.446;-2.606;2023-03-26T13:05:36;100899.06;;;9.71;71.41
69351;BME280;57106;51.446;-2.606;2023-03-26T13:08:00;100907.71;;;9.91;70.87
69351;BME280;57106;51.446;-2.606;2023-03-26T13:10:25;100904.31;;;9.83;70.82
69351;BME280;57106;51.446;-2.606;2023-03-26T13:12:44;100913.31;;;9.64;70.93
69351;BME280;57106;51.446;-2.606;2023-03-26T13:15:14;100928.13;;;9.81;70.78
69351;BME280;57106;51.446;-2.606;2023-03-26T13:17:34;100928.59;;;9.91;70.45
69351;BME280;57106;51.446;-2.606;2023-03-26T13:20:00;100934.05;;;9.77;70.58
69351;BME280;57106;51.446;-2.606;2023-03-26T13:22:25;100936.49;;;9.58;70.99
69351;BME280;57106;51.446;-2.606;2023-03-26T13:24:54;100936.82;;;9.66;71.36
69351;BME280;57106;51.446;-2.606;2023-03-26T13:27:23;100942.25;;;9.72;71.00
69351;BME280;57106;51.446;-2.606;2023-03-26T13:29:45;100945.00;;;9.69;71.13